Time;durP1;ratioP1;P1;durP2;ratioP2;P2;SDS_P1;SDS_P2;PMS_P1;PMS_P2;Temp;Humidity;BMP_temperature;BMP_pressure;BME280_temperature;BME280_humidity;BME280_pressure;Samples;Min_cycle;Max_cycle;Signal;HPM_P1;HPM_P2
2022/09/04 00:00:10;;;;;;;2.43;1.87;;;17.90;90.00;;;;;;4150225;28;20216;-79
2022/09/04 00:02:22;;;;;;;3.30;1.93;;;17.90;90.60;;;;;;4133361;28;20291;-78
2022/09/04 00:04:34;;;;;;;3.53;2.10;;;17.80;90.60;;;;;;4136802;28;20303;-78
2022/09/04 00:06:48;;;;;;;2.87;2.13;;;17.80;90.30;;;;;;4135589;28;20275;-79
2022/09/04 00:09:00;;;;;;;3.43;1.93;;;17.80;90.40;;;;;;4135755;28;20244;-79
2022/09/04 00:11:07;;;;;;;2.40;2.10;;;17.80;91.10;;;;;;4135235;28;20233;-78
2022/09/04 00:13:15;;;;;;;3.23;2.03;;;17.80;91.10;;;;;;4131742;28;20214;-78
2022/09/04 00:15:23;;;;;;;4.00;2.40;;;17.80;91.10;;;;;;4133743;28;20219;-78
2022/09/04 00:17:30;;;;;;;3.03;1.83;;;17.80;91.00;;;;;;4135738;28;20256;-79
2022/09/04 00:19:37;;;;;;;3.47;2.10;;;17.80;91.10;;;;;;4141820;28;20650;-79
2022/09/04 00:21:44;;;;;;;3.67;2.33;;;17.80;91.50;;;;;;4138391;28;20626;-79
2022/09/04 00:23:53;;;;;;;4.77;2.10;;;17.80;91.50;;;;;;4139773;28;20225;-79
2022/09/04 00:26:03;;;;;;;2.83;1.80;;;17.80;91.50;;;;;;4140142;28;20300;-79
2022/09/04 00:28:09;;;;;;;3.13;2.07;;;17.80;91.60;;;;;;4144656;28;20212;-79
2022/09/04 00:30:16;;;;;;;2.87;2.00;;;17.80;91.70;;;;;;4147735;28;20209;-79
2022/09/04 00:32:24;;;;;;;4.30;2.33;;;17.80;92.60;;;;;;4141255;28;20279;-79
2022/09/04 00:34:52;;;;;;;3.33;2.50;;;17.80;92.30;;;;;;4144927;28;20221;-79
2022/09/04 00:37:00;;;;;;;3.73;2.27;;;17.70;92.70;;;;;;4148103;28;20238;-80
2022/09/04 00:39:10;;;;;;;2.90;1.90;;;17.70;92.90;;;;;;4141548;28;20232;-78
2022/09/04 00:41:24;;;;;;;3.50;2.40;;;17.70;93.20;;;;;;4139975;28;20246;-79
2022/09/04 00:43:56;;;;;;;4.70;2.70;;;17.70;93.10;;;;;;4142143;28;20208;-79
2022/09/04 00:46:14;;;;;;;5.30;2.60;;;17.70;93.40;;;;;;4140139;28;20212;-79
2022/09/04 00:48:32;;;;;;;4.00;2.70;;;17.70;93.60;;;;;;4140365;28;20289;-79
2022/09/04 00:50:46;;;;;;;3.33;2.50;;;17.70;93.70;;;;;;4145414;28;20214;-79
2022/09/04 00:53:20;;;;;;;3.70;2.37;;;17.70;93.90;;;;;;4143608;28;20225;-79
2022/09/04 00:55:43;;;;;;;2.87;2.17;;;17.60;94.40;;;;;;4140232;28;20243;-79
2022/09/04 00:58:11;;;;;;;4.03;2.20;;;17.60;94.50;;;;;;4148958;28;20232;-79
2022/09/04 01:00:15;;;;;;;2.47;2.07;;;17.60;94.70;;;;;;4131211;28;20208;-80
2022/09/04 01:02:25;;;;;;;3.30;2.23;;;17.60;94.90;;;;;;4147322;28;20204;-79
2022/09/04 01:04:41;;;;;;;4.17;2.50;;;17.60;94.70;;;;;;4142368;28;20248;-79
2022/09/04 01:06:53;;;;;;;3.60;2.13;;;17.60;94.60;;;;;;4134894;28;20260;-78
2022/09/04 01:09:20;;;;;;;2.50;2.10;;;17.50;94.90;;;;;;4137777;28;20248;-79
2022/09/04 01:11:33;;;;;;;4.37;2.43;;;17.50;95.40;;;;;;4135297;28;20291;-78
2022/09/04 01:13:41;;;;;;;3.93;2.37;;;17.50;94.90;;;;;;4136169;28;20238;-78
2022/09/04 01:15:48;;;;;;;4.03;2.20;;;17.50;95.30;;;;;;4142163;28;20251;-78
2022/09/04 01:18:00;;;;;;;3.13;2.37;;;17.50;95.60;;;;;;4139930;28;20311;-79
2022/09/04 01:20:13;;;;;;;3.20;2.27;;;17.50;95.40;;;;;;4137499;28;20232;-78
2022/09/04 01:22:40;;;;;;;4.93;2.50;;;17.50;96.10;;;;;;4139337;28;20219;-79
2022/09/04 01:25:04;;;;;;;2.87;2.03;;;17.50;95.90;;;;;;4136399;28;20259;-77
2022/09/04 01:27:13;;;;;;;3.20;2.40;;;17.50;96.70;;;;;;4136279;28;20247;-77
2022/09/04 01:29:27;;;;;;;3.80;2.23;;;17.50;96.70;;;;;;4139598;28;20207;-78
2022/09/04 01:31:37;;;;;;;3.57;2.60;;;17.50;96.80;;;;;;4138175;28;20235;-77
2022/09/04 01:33:47;;;;;;;3.00;2.07;;;17.50;97.10;;;;;;4140540;28;20231;-78
2022/09/04 01:35:55;;;;;;;4.63;2.20;;;17.50;96.70;;;;;;4138980;28;20246;-78
2022/09/04 01:38:09;;;;;;;2.53;1.90;;;17.50;97.30;;;;;;4138995;28;20219;-78
2022/09/04 01:40:29;;;;;;;3.33;2.13;;;17.40;97.50;;;;;;4139443;28;20216;-78
2022/09/04 01:42:41;;;;;;;3.77;2.20;;;17.40;98.10;;;;;;4136249;28;20244;-77
2022/09/04 01:44:43;;;;;;;2.93;2.10;;;17.40;97.40;;;;;;4135198;28;20242;-77
2022/09/04 01:46:54;;;;;;;2.87;1.80;;;17.40;97.10;;;;;;4137595;28;20236;-78
2022/09/04 01:49:03;;;;;;;2.90;2.00;;;17.40;97.40;;;;;;4134269;28;20297;-77
2022/09/04 01:51:17;;;;;;;3.00;2.27;;;17.40;97.40;;;;;;4131414;28;20246;-78
2022/09/04 01:53:25;;;;;;;4.17;2.27;;;17.40;97.50;;;;;;4135078;28;20217;-78
2022/09/04 01:55:34;;;;;;;2.60;2.20;;;17.40;98.40;;;;;;4131880;28;20258;-78
2022/09/04 01:57:50;;;;;;;3.43;2.47;;;17.40;98.30;;;;;;4132675;28;20228;-77
2022/09/04 02:00:02;;;;;;;3.07;2.10;;;17.40;98.80;;;;;;4128354;28;21402;-78
2022/09/04 02:02:12;;;;;;;4.40;2.13;;;17.40;98.30;;;;;;4126700;28;20205;-77
2022/09/04 02:04:20;;;;;;;3.27;2.37;;;17.40;98.60;;;;;;4131921;28;20208;-77
2022/09/04 02:06:29;;;;;;;3.43;2.30;;;17.40;98.80;;;;;;4133105;28;20305;-77
2022/09/04 02:09:10;;;;;;;3.17;2.13;;;17.40;98.90;;;;;;4131930;28;20195;-77
2022/09/04 02:11:16;;;;;;;3.27;2.00;;;17.40;98.80;;;;;;4069492;29;20236;-77
2022/09/04 02:13:23;;;;;;;2.77;1.80;;;17.40;98.80;;;;;;4123264;28;20251;-77
2022/09/04 02:15:37;;;;;;;3.20;2.03;;;17.40;99.00;;;;;;4136230;28;20235;-78
2022/09/04 02:17:47;;;;;;;2.80;2.20;;;17.40;99.60;;;;;;4135308;28;20682;-78
2022/09/04 02:20:01;;;;;;;2.73;2.10;;;17.40;99.40;;;;;;4135019;28;20213;-78
2022/09/04 02:22:11;;;;;;;2.97;2.13;;;17.40;99.40;;;;;;4137124;28;20204;-78
2022/09/04 02:24:20;;;;;;;2.73;2.23;;;17.40;99.90;;;;;;4134933;28;20762;-79
2022/09/04 02:26:27;;;;;;;4.17;2.27;;;17.30;99.90;;;;;;4133035;28;20677;-78
2022/09/04 02:28:39;;;;;;;3.23;2.20;;;17.30;99.90;;;;;;4132314;28;20291;-78
2022/09/04 02:30:49;;;;;;;3.93;2.53;;;17.20;99.90;;;;;;4134597;28;20232;-78
2022/09/04 02:33:01;;;;;;;2.87;2.13;;;17.30;99.90;;;;;;4142170;28;20448;-78
2022/09/04 02:35:10;;;;;;;3.70;2.40;;;17.30;99.90;;;;;;4139851;28;20230;-78
2022/09/04 02:37:22;;;;;;;3.40;2.40;;;17.30;99.90;;;;;;4142351;28;20235;-78
2022/09/04 02:39:36;;;;;;;2.93;2.20;;;17.30;99.90;;;;;;4144661;28;20212;-78
2022/09/04 02:41:49;;;;;;;3.67;2.33;;;17.30;99.90;;;;;;4143495;28;20204;-78
2022/09/04 02:44:04;;;;;;;5.10;3.00;;;17.30;99.90;;;;;;4143855;28;20212;-78
2022/09/04 02:46:13;;;;;;;3.90;2.43;;;17.30;99.90;;;;;;4147714;28;20211;-78
2022/09/04 02:48:22;;;;;;;3.83;2.63;;;17.30;99.90;;;;;;4149292;28;20262;-78
2022/09/04 02:50:41;;;;;;;4.10;2.50;;;17.30;99.90;;;;;;4148189;28;20215;-78
2022/09/04 02:53:00;;;;;;;3.20;2.50;;;17.30;99.90;;;;;;4136134;28;20287;-78
2022/09/04 02:55:13;;;;;;;3.60;2.37;;;17.20;99.90;;;;;;4140199;28;20303;-78
2022/09/04 02:57:27;;;;;;;4.37;2.50;;;17.20;99.90;;;;;;4148513;28;20272;-78
2022/09/04 02:59:42;;;;;;;3.70;2.40;;;17.20;99.90;;;;;;4148942;28;20212;-77
2022/09/04 03:01:52;;;;;;;3.90;2.63;;;17.20;99.90;;;;;;4147733;28;20225;-78
2022/09/04 03:04:04;;;;;;;2.63;2.17;;;17.20;99.90;;;;;;4145669;28;20270;-78
2022/09/04 03:06:10;;;;;;;2.97;2.27;;;17.20;99.90;;;;;;4137055;28;20287;-78
2022/09/04 03:08:18;;;;;;;3.50;2.40;;;17.20;99.90;;;;;;4134672;28;20720;-78
2022/09/04 03:10:26;;;;;;;4.07;2.47;;;17.20;99.90;;;;;;4134641;28;20299;-78
2022/09/04 03:12:34;;;;;;;2.97;2.50;;;17.20;99.90;;;;;;4130908;28;20204;-78
2022/09/04 03:14:42;;;;;;;4.60;3.07;;;17.20;99.90;;;;;;4133633;28;20207;-78
2022/09/04 03:16:51;;;;;;;3.57;2.50;;;17.20;99.90;;;;;;4135017;28;20231;-78
2022/09/04 03:19:06;;;;;;;3.37;2.40;;;17.20;99.90;;;;;;4138127;28;20212;-77
2022/09/04 03:21:13;;;;;;;4.13;2.57;;;17.20;99.90;;;;;;4130928;28;20697;-78
2022/09/04 03:23:19;;;;;;;3.67;2.47;;;17.20;99.90;;;;;;4122240;28;20213;-78
2022/09/04 03:25:56;;;;;;;5.07;2.93;;;17.10;99.90;;;;;;4124325;28;20216;-78
2022/09/04 03:27:58;;;;;;;4.87;3.00;;;17.10;99.90;;;;;;4124096;28;20225;-78
2022/09/04 03:30:06;;;;;;;5.97;2.90;;;17.10;99.90;;;;;;4136371;28;20290;-77
2022/09/04 03:32:17;;;;;;;3.67;2.57;;;17.10;99.90;;;;;;4140033;28;20677;-78
2022/09/04 03:34:28;;;;;;;3.83;2.87;;;17.10;99.90;;;;;;4143374;28;20231;-78
2022/09/04 03:36:40;;;;;;;4.13;2.80;;;17.10;99.90;;;;;;4147304;28;20261;-78
2022/09/04 03:38:53;;;;;;;4.63;3.07;;;17.10;99.90;;;;;;4144620;28;20213;-78
2022/09/04 03:41:05;;;;;;;4.60;2.77;;;17.10;99.90;;;;;;4146697;28;20223;-78
2022/09/04 03:43:30;;;;;;;3.87;2.60;;;17.00;99.90;;;;;;4145968;28;20669;-77
2022/09/04 03:45:41;;;;;;;4.17;3.10;;;17.00;99.90;;;;;;4131864;28;20196;-78
2022/09/04 03:47:57;;;;;;;6.07;2.93;;;17.00;99.90;;;;;;4136298;28;20751;-78
2022/09/04 03:50:10;;;;;;;4.30;2.80;;;17.00;99.90;;;;;;4139507;28;20764;-78
2022/09/04 03:52:20;;;;;;;7.13;3.20;;;16.90;99.90;;;;;;4135421;28;20211;-78
2022/09/04 03:54:37;;;;;;;7.90;3.40;;;16.90;99.90;;;;;;4134960;28;20208;-78
2022/09/04 03:56:58;;;;;;;5.17;3.30;;;16.90;99.90;;;;;;4138104;28;20267;-78
2022/09/04 03:59:03;;;;;;;4.70;3.43;;;16.90;99.90;;;;;;4134688;28;20219;-78
2022/09/04 04:01:16;;;;;;;4.70;3.30;;;16.80;99.90;;;;;;4135886;28;20582;-78
2022/09/04 04:03:34;;;;;;;4.77;3.07;;;16.80;99.90;;;;;;4137366;28;20218;-78
2022/09/04 04:05:44;;;;;;;5.63;3.60;;;16.80;99.90;;;;;;4134829;28;20215;-78
2022/09/04 04:07:57;;;;;;;6.40;3.60;;;16.80;99.90;;;;;;4134225;28;20723;-78
2022/09/04 04:10:18;;;;;;;4.47;3.30;;;16.70;99.90;;;;;;4135432;28;20287;-78
2022/09/04 04:12:41;;;;;;;7.13;3.50;;;16.70;99.90;;;;;;4132548;28;20224;-78
2022/09/04 04:15:11;;;;;;;4.83;3.53;;;16.60;99.90;;;;;;4132462;28;20581;-78
2022/09/04 04:17:47;;;;;;;5.83;3.50;;;16.60;99.90;;;;;;4126696;28;20336;-78
2022/09/04 04:20:04;;;;;;;4.53;3.30;;;16.60;99.90;;;;;;4132035;28;20669;-78
2022/09/04 04:22:34;;;;;;;4.80;3.33;;;16.50;99.90;;;;;;4130942;28;20211;-77
2022/09/04 04:24:56;;;;;;;4.17;3.27;;;16.50;99.90;;;;;;4133802;28;20212;-78
2022/09/04 04:27:09;;;;;;;5.43;3.40;;;16.50;99.90;;;;;;4129435;28;20327;-78
2022/09/04 04:29:29;;;;;;;4.37;3.40;;;16.50;99.90;;;;;;4132238;28;20235;-80
2022/09/04 04:32:09;;;;;;;4.90;3.20;;;16.50;99.90;;;;;;4132751;28;20215;-80
2022/09/04 04:34:20;;;;;;;4.73;3.20;;;16.40;99.90;;;;;;4131362;28;20211;-79
2022/09/04 04:36:29;;;;;;;4.20;2.97;;;16.40;99.90;;;;;;4134278;28;20315;-79
2022/09/04 04:38:46;;;;;;;4.77;3.50;;;16.40;99.90;;;;;;4133043;28;20210;-78
2022/09/04 04:41:04;;;;;;;5.80;3.50;;;16.40;99.90;;;;;;4131588;28;20645;-78
2022/09/04 04:43:15;;;;;;;4.70;3.10;;;16.40;99.90;;;;;;4135813;28;20211;-78
2022/09/04 04:48:20;;;;;;;4.93;3.77;;;16.40;99.90;;;;;;4138200;28;20219;-78
2022/09/04 04:50:35;;;;;;;5.63;3.50;;;16.40;99.90;;;;;;4098543;28;21021;-78
2022/09/04 04:52:52;;;;;;;4.90;3.53;;;16.40;99.90;;;;;;4131091;28;20204;-78
2022/09/04 04:55:05;;;;;;;4.70;3.20;;;16.40;99.90;;;;;;4132816;28;20230;-78
2022/09/04 04:57:16;;;;;;;6.03;3.63;;;16.40;99.90;;;;;;4133594;28;20315;-78
2022/09/04 04:59:26;;;;;;;6.90;3.20;;;16.30;99.90;;;;;;4127427;28;20872;-78
2022/09/04 05:01:42;;;;;;;6.57;3.83;;;16.30;99.90;;;;;;4135650;28;20208;-78
2022/09/04 05:03:59;;;;;;;4.90;4.07;;;16.30;99.90;;;;;;4134262;28;20212;-78
2022/09/04 05:06:09;;;;;;;5.90;3.90;;;16.30;99.90;;;;;;4132000;28;20294;-79
2022/09/04 05:08:20;;;;;;;5.10;3.73;;;16.30;99.90;;;;;;4128550;28;20212;-78
2022/09/04 05:10:29;;;;;;;5.07;3.60;;;16.30;99.90;;;;;;4129929;28;20339;-79
2022/09/04 05:12:44;;;;;;;5.97;3.90;;;16.30;99.90;;;;;;4135689;28;20299;-78
2022/09/04 05:14:52;;;;;;;4.63;3.50;;;16.30;99.90;;;;;;4131504;28;20680;-78
2022/09/04 05:17:04;;;;;;;4.73;3.60;;;16.30;99.90;;;;;;4132507;28;20323;-78
2022/09/04 05:19:14;;;;;;;5.20;3.33;;;16.30;99.90;;;;;;4134547;28;20235;-79
2022/09/04 05:21:23;;;;;;;5.07;3.20;;;16.40;99.90;;;;;;4127847;28;20909;-78
2022/09/04 05:23:32;;;;;;;5.83;3.57;;;16.30;99.90;;;;;;4130505;28;20207;-79
2022/09/04 05:25:41;;;;;;;5.07;3.37;;;16.40;99.90;;;;;;4133011;28;20226;-81
2022/09/04 05:27:56;;;;;;;5.67;3.40;;;16.40;99.90;;;;;;4129653;28;20264;-78
2022/09/04 05:30:04;;;;;;;5.73;3.60;;;16.40;99.90;;;;;;4130504;28;20208;-78
2022/09/04 05:32:16;;;;;;;4.93;3.37;;;16.40;99.90;;;;;;4130861;28;20212;-78
2022/09/04 05:34:29;;;;;;;4.87;3.63;;;16.40;99.90;;;;;;4133288;28;20295;-79
2022/09/04 05:36:42;;;;;;;4.93;3.20;;;16.40;99.90;;;;;;4132249;28;20255;-78
2022/09/04 05:38:57;;;;;;;5.90;3.97;;;16.40;99.90;;;;;;4132024;28;20204;-78
2022/09/04 05:41:06;;;;;;;5.17;3.57;;;16.40;99.90;;;;;;4128874;28;20211;-78
2022/09/04 05:43:21;;;;;;;5.50;3.73;;;16.50;99.90;;;;;;4133181;28;20789;-78
2022/09/04 05:45:28;;;;;;;4.97;3.43;;;16.50;99.90;;;;;;4130367;28;20213;-78
2022/09/04 05:47:43;;;;;;;5.20;3.47;;;16.50;99.90;;;;;;4133564;28;20223;-79
2022/09/04 05:50:07;;;;;;;5.83;3.50;;;16.50;99.90;;;;;;4129781;28;20224;-78
2022/09/04 05:52:33;;;;;;;6.07;3.50;;;16.50;99.90;;;;;;4131912;28;20307;-78
2022/09/04 05:54:55;;;;;;;4.30;3.33;;;16.50;99.90;;;;;;4132252;28;20203;-79
2022/09/04 05:57:08;;;;;;;5.07;3.47;;;16.50;99.90;;;;;;4130055;28;20228;-78
2022/09/04 05:59:36;;;;;;;5.90;3.60;;;16.50;99.90;;;;;;4133709;28;20226;-78
2022/09/04 06:02:05;;;;;;;5.13;3.40;;;16.50;99.90;;;;;;4129845;28;20735;-78
2022/09/04 06:04:29;;;;;;;5.60;3.67;;;16.50;99.90;;;;;;4128209;28;20279;-78
2022/09/04 06:06:39;;;;;;;6.70;4.23;;;16.60;99.90;;;;;;4132892;28;20314;-79
2022/09/04 06:09:06;;;;;;;3.70;3.00;;;16.60;99.90;;;;;;4128226;28;20347;-80
2022/09/04 06:11:36;;;;;;;5.23;3.07;;;16.60;99.90;;;;;;4133265;28;20216;-79
2022/09/04 06:13:55;;;;;;;6.10;3.70;;;16.70;99.90;;;;;;4135451;28;20214;-79
2022/09/04 06:16:16;;;;;;;4.10;3.30;;;16.70;99.90;;;;;;4131406;28;20704;-78
2022/09/04 06:18:47;;;;;;;4.37;3.47;;;16.70;99.90;;;;;;4135345;28;20588;-79
2022/09/04 06:21:21;;;;;;;4.43;3.40;;;16.70;99.90;;;;;;4135012;28;20218;-78
2022/09/04 06:23:48;;;;;;;4.20;3.30;;;16.70;99.90;;;;;;4110049;28;20930;-79
2022/09/04 06:26:21;;;;;;;5.50;3.70;;;16.80;99.90;;;;;;4131806;28;20286;-79
2022/09/04 06:28:51;;;;;;;4.53;3.50;;;16.80;99.90;;;;;;4129100;28;21170;-78
2022/09/04 06:31:01;;;;;;;7.17;3.60;;;16.90;99.90;;;;;;4129786;28;20235;-79
2022/09/04 06:33:21;;;;;;;5.37;3.57;;;16.90;99.90;;;;;;4129943;28;20302;-79
2022/09/04 06:35:39;;;;;;;4.73;3.37;;;16.90;99.90;;;;;;4130526;28;20661;-79
2022/09/04 06:37:52;;;;;;;4.53;3.60;;;16.90;99.90;;;;;;4129302;28;20224;-78
2022/09/04 06:40:16;;;;;;;5.70;3.43;;;17.00;99.90;;;;;;4131832;28;20378;-78
2022/09/04 06:42:31;;;;;;;6.40;3.77;;;17.00;99.90;;;;;;4131688;28;20231;-78
2022/09/04 06:44:45;;;;;;;4.93;3.50;;;17.10;99.90;;;;;;4130892;28;20212;-79
2022/09/04 06:46:56;;;;;;;5.27;3.47;;;17.10;99.90;;;;;;4132893;28;20739;-78
2022/09/04 06:49:04;;;;;;;4.97;3.77;;;17.20;99.90;;;;;;4132882;28;20232;-77
2022/09/04 06:51:18;;;;;;;4.47;3.40;;;17.20;99.90;;;;;;4131557;28;20223;-78
2022/09/04 06:53:34;;;;;;;4.07;3.33;;;17.30;99.90;;;;;;4134468;28;20216;-79
2022/09/04 06:55:44;;;;;;;5.60;3.47;;;17.30;99.90;;;;;;4135810;28;20410;-78
2022/09/04 06:58:12;;;;;;;5.33;3.40;;;17.40;99.90;;;;;;4133038;28;20679;-79
2022/09/04 07:00:17;;;;;;;5.57;3.43;;;17.40;99.90;;;;;;4128155;28;20273;-78
2022/09/04 07:02:31;;;;;;;5.07;3.77;;;17.50;99.90;;;;;;4132402;28;20291;-77
2022/09/04 07:04:48;;;;;;;4.73;3.43;;;17.50;99.90;;;;;;4136638;28;20212;-79
2022/09/04 07:07:01;;;;;;;4.93;3.20;;;17.50;99.90;;;;;;4134683;28;20238;-78
2022/09/04 07:09:12;;;;;;;4.80;3.50;;;17.60;99.90;;;;;;4132382;28;20213;-78
2022/09/04 07:11:24;;;;;;;4.77;3.50;;;17.60;99.90;;;;;;4131499;28;20251;-78
2022/09/04 07:13:49;;;;;;;3.93;3.00;;;17.70;99.90;;;;;;4132852;28;20206;-78
2022/09/04 07:16:25;;;;;;;4.20;3.40;;;17.70;99.90;;;;;;4133577;28;20218;-78
2022/09/04 07:18:45;;;;;;;5.57;3.20;;;17.80;99.90;;;;;;4130774;28;20333;-79
2022/09/04 07:20:59;;;;;;;4.27;3.37;;;17.90;99.90;;;;;;4132092;28;20676;-78
2022/09/04 07:23:22;;;;;;;4.37;3.40;;;18.00;99.90;;;;;;4137088;28;20264;-79
2022/09/04 07:25:33;;;;;;;4.43;3.30;;;18.10;99.90;;;;;;4133321;28;20234;-79
2022/09/04 07:27:54;;;;;;;4.30;3.30;;;18.10;99.90;;;;;;4142119;28;20267;-80
2022/09/04 07:30:03;;;;;;;6.23;3.60;;;18.20;99.90;;;;;;4140628;28;20215;-80
2022/09/04 07:32:10;;;;;;;4.67;3.70;;;18.20;99.90;;;;;;4138841;28;20214;-80
2022/09/04 07:34:21;;;;;;;4.53;3.40;;;18.30;99.90;;;;;;4160451;22;20247;-75
2022/09/04 07:36:31;;;;;;;5.83;4.00;;;18.40;99.90;;;;;;4140647;28;20802;-74
2022/09/04 07:38:40;;;;;;;5.20;3.80;;;18.40;99.90;;;;;;4143612;28;20235;-75
2022/09/04 07:40:52;;;;;;;6.23;3.70;;;18.50;99.90;;;;;;4140401;28;20677;-75
2022/09/04 07:42:58;;;;;;;7.27;4.17;;;18.60;99.90;;;;;;4142652;28;20220;-75
2022/09/04 07:45:07;;;;;;;5.03;3.80;;;18.60;99.90;;;;;;4144893;28;20306;-77
2022/09/04 07:47:15;;;;;;;5.63;3.77;;;18.70;99.90;;;;;;4141581;28;20215;-74
2022/09/04 07:49:25;;;;;;;6.83;4.20;;;18.80;99.90;;;;;;4141458;28;20214;-74
2022/09/04 07:51:34;;;;;;;5.00;3.53;;;18.80;99.90;;;;;;4139174;28;20214;-75
2022/09/04 07:53:57;;;;;;;5.17;4.00;;;18.90;99.90;;;;;;4142766;28;20294;-75
2022/09/04 07:56:03;;;;;;;6.13;3.70;;;19.00;99.90;;;;;;4135388;28;20212;-75
2022/09/04 07:58:32;;;;;;;4.93;3.70;;;19.10;99.90;;;;;;4143405;28;20741;-75
2022/09/04 08:00:40;;;;;;;5.43;3.90;;;19.20;99.90;;;;;;4141669;28;20242;-74
2022/09/04 08:03:10;;;;;;;5.10;3.43;;;19.20;99.90;;;;;;4137814;28;20708;-75
2022/09/04 08:05:24;;;;;;;4.63;3.47;;;19.30;99.90;;;;;;4141453;28;20230;-75
2022/09/04 08:07:48;;;;;;;5.20;3.53;;;19.40;99.90;;;;;;4138730;28;20741;-75
2022/09/04 08:10:14;;;;;;;5.53;3.50;;;19.50;99.90;;;;;;4138722;28;20235;-75
2022/09/04 08:12:33;;;;;;;4.23;3.50;;;19.50;99.90;;;;;;4142806;28;20235;-75
2022/09/04 08:14:54;;;;;;;5.40;3.60;;;19.60;99.90;;;;;;4140551;28;20743;-75
2022/09/04 08:17:40;;;;;;;5.10;3.17;;;19.70;99.90;;;;;;4139880;28;20758;-75
2022/09/04 08:19:49;;;;;;;4.87;3.60;;;19.80;99.90;;;;;;4119274;28;20841;-75
2022/09/04 08:21:53;;;;;;;4.37;3.10;;;19.90;99.90;;;;;;4139061;28;20285;-75
2022/09/04 08:24:22;;;;;;;4.00;3.20;;;19.90;99.90;;;;;;4140573;28;20218;-75
2022/09/04 08:26:33;;;;;;;4.07;3.20;;;20.00;99.90;;;;;;4139347;28;20673;-75
2022/09/04 08:28:55;;;;;;;4.47;3.10;;;20.10;99.90;;;;;;4154747;28;20230;-75
2022/09/04 08:31:07;;;;;;;3.70;2.97;;;20.20;99.90;;;;;;4145476;28;20212;-75
2022/09/04 08:33:44;;;;;;;3.50;2.67;;;20.30;99.90;;;;;;4142455;28;20227;-75
2022/09/04 08:35:54;;;;;;;5.03;3.30;;;20.40;99.90;;;;;;4141676;28;20215;-75
2022/09/04 08:38:49;;;;;;;4.23;2.50;;;20.40;99.90;;;;;;4139482;28;20231;-75
2022/09/04 08:41:38;;;;;;;4.07;2.80;;;20.60;99.90;;;;;;4107533;28;20318;-75
2022/09/04 08:44:21;;;;;;;4.20;2.87;;;20.60;99.90;;;;;;4136585;28;20749;-75
2022/09/04 08:46:47;;;;;;;7.50;3.50;;;20.80;99.50;;;;;;4138409;28;20212;-75
2022/09/04 08:49:40;;;;;;;3.50;2.80;;;20.90;99.10;;;;;;4142226;28;20213;-74
2022/09/04 08:52:26;;;;;;;4.20;3.10;;;21.00;98.60;;;;;;4138769;28;20235;-76
2022/09/04 08:55:01;;;;;;;4.00;2.93;;;21.10;98.10;;;;;;4141967;28;20222;-75
2022/09/04 08:57:28;;;;;;;3.17;2.67;;;21.20;97.30;;;;;;4140129;28;20209;-74
2022/09/04 09:00:05;;;;;;;3.73;2.93;;;21.40;96.80;;;;;;4140947;28;20222;-75
2022/09/04 09:02:42;;;;;;;3.80;2.97;;;21.50;96.10;;;;;;4140694;28;20209;-75
2022/09/04 09:05:24;;;;;;;3.80;2.90;;;21.50;95.40;;;;;;4137442;28;20222;-75
2022/09/04 09:07:52;;;;;;;3.67;2.90;;;21.60;94.40;;;;;;4137911;28;20205;-74
2022/09/04 09:10:19;;;;;;;4.33;2.90;;;21.70;94.20;;;;;;4140555;28;20214;-75
2022/09/04 09:12:59;;;;;;;3.60;2.97;;;21.80;93.60;;;;;;4139957;28;20209;-75
2022/09/04 09:15:38;;;;;;;4.60;3.17;;;21.80;93.50;;;;;;4140300;28;20235;-75
2022/09/04 09:17:52;;;;;;;3.30;2.70;;;21.90;93.30;;;;;;4139062;28;20199;-75
2022/09/04 09:20:00;;;;;;;4.87;3.03;;;22.00;92.80;;;;;;4140818;28;20223;-76
2022/09/04 09:22:10;;;;;;;3.83;3.10;;;22.00;91.30;;;;;;4142216;28;20838;-76
2022/09/04 09:27:40;;;;;;;3.20;2.70;;;22.20;91.50;;;;;;4107738;28;20245;-76
2022/09/04 09:30:04;;;;;;;3.00;2.40;;;22.30;91.10;;;;;;4139190;28;20214;-75
2022/09/04 09:32:38;;;;;;;3.00;2.70;;;22.40;90.50;;;;;;4139727;28;20217;-76
2022/09/04 09:35:21;;;;;;;3.80;2.63;;;22.40;88.80;;;;;;4138974;28;20280;-76
2022/09/04 09:37:42;;;;;;;3.10;2.70;;;22.60;88.20;;;;;;4138002;28;20773;-76
2022/09/04 09:40:24;;;;;;;3.83;2.83;;;22.60;85.00;;;;;;4137299;28;20650;-76
2022/09/04 09:42:59;;;;;;;3.37;2.80;;;22.70;82.60;;;;;;4104269;28;20216;-77
2022/09/04 09:45:43;;;;;;;4.13;2.80;;;22.70;82.00;;;;;;4116387;28;20270;-75
2022/09/04 09:48:34;;;;;;;4.30;2.73;;;22.80;82.80;;;;;;4136977;28;20245;-75
2022/09/04 09:51:00;;;;;;;3.47;2.53;;;22.80;83.70;;;;;;4137512;28;20238;-75
2022/09/04 09:53:40;;;;;;;3.53;2.87;;;22.80;81.40;;;;;;4137404;28;20742;-75
2022/09/04 09:56:27;;;;;;;3.27;2.60;;;22.90;80.10;;;;;;4141061;28;20558;-75
2022/09/04 09:58:56;;;;;;;5.93;3.00;;;22.90;80.80;;;;;;4102608;28;20250;-75
2022/09/04 10:01:18;;;;;;;3.23;2.87;;;22.90;79.30;;;;;;4136052;28;20200;-75
2022/09/04 10:04:09;;;;;;;3.97;2.90;;;23.00;77.30;;;;;;4138074;28;20245;-79
2022/09/04 10:06:45;;;;;;;3.43;2.83;;;23.00;78.00;;;;;;4136242;28;20211;-75
2022/09/04 10:09:33;;;;;;;4.37;3.33;;;23.10;79.00;;;;;;4140189;28;20736;-75
2022/09/04 10:12:26;;;;;;;4.40;3.30;;;23.10;75.00;;;;;;4137384;28;20207;-79
2022/09/04 10:15:04;;;;;;;3.37;3.07;;;23.20;76.30;;;;;;4072150;28;20233;-75
2022/09/04 10:17:34;;;;;;;4.30;3.23;;;23.20;75.90;;;;;;4136846;28;20257;-76
2022/09/04 10:20:02;;;;;;;3.93;3.00;;;23.30;74.30;;;;;;4138692;28;20223;-78
2022/09/04 10:22:31;;;;;;;3.77;2.90;;;23.30;73.10;;;;;;4138704;28;20214;-76
2022/09/04 10:25:04;;;;;;;4.10;2.90;;;23.40;73.40;;;;;;4141611;28;20243;-77
2022/09/04 10:27:45;;;;;;;3.03;2.73;;;23.40;72.20;;;;;;4139431;28;20246;-77
2022/09/04 10:30:05;;;;;;;5.03;2.87;;;23.50;70.30;;;;;;4138847;28;20692;-76
2022/09/04 10:32:24;;;;;;;3.17;2.50;;;23.60;70.70;;;;;;4142308;28;20235;-76
2022/09/04 10:34:40;;;;;;;4.07;2.97;;;23.70;67.30;;;;;;4139430;28;20678;-78
2022/09/04 10:36:51;;;;;;;3.47;2.80;;;23.70;67.60;;;;;;4140675;28;20306;-78
2022/09/04 10:42:01;;;;;;;4.27;2.70;;;23.80;63.30;;;;;;4142768;28;20720;-76
2022/09/04 10:44:24;;;;;;;4.17;2.70;;;23.90;64.00;;;;;;4143205;28;20207;-80
2022/09/04 10:46:36;;;;;;;2.63;2.43;;;24.00;64.40;;;;;;4102781;28;20239;-76
2022/09/04 10:49:11;;;;;;;3.67;2.60;;;24.10;62.00;;;;;;4143961;28;20239;-77
2022/09/04 10:51:43;;;;;;;3.07;2.77;;;24.20;59.80;;;;;;4141901;28;20701;-79
2022/09/04 10:54:13;;;;;;;4.50;2.50;;;24.30;59.50;;;;;;4141065;28;20235;-78
2022/09/04 10:56:22;;;;;;;4.20;2.70;;;24.30;58.90;;;;;;4113786;28;20216;-80
2022/09/04 10:58:51;;;;;;;2.60;2.30;;;24.50;58.10;;;;;;4144171;28;20231;-76
2022/09/04 11:01:17;;;;;;;3.00;2.60;;;24.60;57.80;;;;;;4141005;28;20220;-77
2022/09/04 11:03:43;;;;;;;3.10;2.40;;;24.60;57.10;;;;;;4142301;28;20832;-77
2022/09/04 11:06:01;;;;;;;2.77;2.43;;;24.80;55.60;;;;;;4158642;28;20207;-76
2022/09/04 11:08:22;;;;;;;2.63;2.37;;;24.90;54.30;;;;;;4158247;28;20211;-78
2022/09/04 11:10:41;;;;;;;3.37;2.50;;;25.00;54.20;;;;;;4142749;28;20286;-77
2022/09/04 11:13:02;;;;;;;3.27;2.63;;;25.20;53.90;;;;;;4142189;28;20302;-76
2022/09/04 11:15:30;;;;;;;3.20;2.60;;;25.40;52.70;;;;;;4138524;28;20282;-76
2022/09/04 11:17:55;;;;;;;3.47;2.77;;;25.50;51.00;;;;;;4139486;28;20219;-79
2022/09/04 11:20:38;;;;;;;3.83;3.10;;;25.60;51.10;;;;;;4142142;28;20696;-77
2022/09/04 11:23:17;;;;;;;4.50;3.40;;;25.80;50.60;;;;;;4129334;28;20665;-79
2022/09/04 11:25:55;;;;;;;4.90;3.20;;;26.00;49.40;;;;;;4142072;28;20285;-77
2022/09/04 11:28:19;;;;;;;4.10;3.03;;;26.20;48.50;;;;;;4140344;28;20669;-76
2022/09/04 11:30:24;;;;;;;3.80;2.80;;;26.30;47.80;;;;;;4138546;28;20208;-79
2022/09/04 11:32:51;;;;;;;4.73;2.50;;;26.50;46.90;;;;;;4141786;28;20246;-77
2022/09/04 11:35:28;;;;;;;3.50;2.40;;;26.60;46.50;;;;;;4141708;28;20251;-76
2022/09/04 11:38:12;;;;;;;3.03;2.37;;;26.80;45.80;;;;;;4135379;28;20246;-80
2022/09/04 11:40:54;;;;;;;3.00;2.40;;;27.00;45.30;;;;;;4137864;28;20267;-77
2022/09/04 11:43:17;;;;;;;6.87;2.50;;;27.20;44.60;;;;;;4137456;28;20257;-76
2022/09/04 11:45:50;;;;;;;3.47;2.80;;;27.40;44.10;;;;;;4140582;28;20220;-78
2022/09/04 11:48:23;;;;;;;3.60;2.93;;;27.60;43.60;;;;;;4142330;28;20273;-76
2022/09/04 11:50:56;;;;;;;4.27;2.90;;;27.90;43.10;;;;;;4143608;28;20203;-78
2022/09/04 11:53:26;;;;;;;3.53;2.63;;;28.10;42.70;;;;;;4141469;28;20239;-77
2022/09/04 11:55:48;;;;;;;4.05;2.85;;;28.40;41.90;;;;;;4140599;28;20732;-77
2022/09/04 11:58:08;;;;;;;2.88;2.50;;;28.60;41.20;;;;;;4144209;28;20200;-76
2022/09/04 12:00:13;;;;;;;4.05;2.60;;;28.80;40.30;;;;;;4140705;28;20648;-77
2022/09/04 12:02:35;;;;;;;2.53;2.30;;;29.10;39.70;;;;;;4141954;28;20208;-77
2022/09/04 12:04:51;;;;;;;3.10;2.42;;;29.30;39.70;;;;;;4142739;28;20224;-78
2022/09/04 12:07:12;;;;;;;3.55;2.30;;;29.60;39.30;;;;;;4142484;28;20242;-79
2022/09/04 12:09:36;;;;;;;3.78;2.70;;;29.80;38.60;;;;;;4140782;28;20227;-77
2022/09/04 12:12:14;;;;;;;3.22;2.42;;;30.10;38.00;;;;;;4140036;28;20204;-78